Главная страница
METAR-TAF:

METAR-TAF

Аэропорты :

Front Royal, Виргиния, США

широта: 38-55-03N, долгота: 078-15-12W, высота над уровнем моря: 216 м

Текущие метеонаблюдения

Эта сводка был подготовлена 25 минут назад, в 00:55 UTC
Штиль
Температура 18°C
Влажность 94%
Давление 1020 hPa
Видимость: 16.1 км
ясное небо

METAR: KFRR 180055Z AUTO 00000KT 10SM CLR 18/17 A3011 RMK AO1

Время: 21:20 (01:20 UTC)


TAF: отсутствует

Метеонаблюдения и прогнозы для более 4000 аэропортов (сводки METAR и TAF).

Имеющиеся станции представлены на карте желтыми и красными точками.

Чтобы увидеть название станции, наведите на нее мышь.

Затем щелкните, чтобы увидеть метеонаблюдения и метеопрогнозы.

Управление картой: чтобы увеличить масштаб, щелкните зеленые кнопки с черным крестиком; чтобы уменьшить масштаб, щелкните зеленую кнопку с тире; для просмотра соседних карт щелкайте зеленые стрелки.


METAR-TAF: